Athol, MA

4:55 AM EST on December 21, 2014 (GMT -0500)
NQRA-Walnut Hill Rd. | Change Station
CLOSE
Current Station
Personal Weather Station
Location: Orange, MA
Elevation: 768 ft
Nearby Weather Stations

Elev 768 ft 42.58 °N, 72.32 °W | Updated 4 seconds ago

Overcast
Overcast
28.8 °F
Feels Like 29 °F
N
2.2
Wind Variable Wind from East
Gusts 4.5 mph

Today
High -- | Low -- °F
--% Chance of Precip.
Yesterday
High -- | Low -- °F
Precip. -- in
7:15 AM 4:18 PM
Waning Crescent, 1% visible
Pressure 30.27 in
Visibility 5.0 miles
Clouds Overcast 3300 ft
Windchill 29 °F
Dew Point 24 °F
Humidity 83%
Rainfall 0.00 in
Snow Depth Not available.
UV 0.0 out of 12
Pollen .10 out of 12
Air Quality Not available.
Flu Activity Not available.
SPECI KORE 210906Z AUTO 01004KT 5SM BR OVC033 M02/M03 A3027 RMK AO2 SNE02 P0000 T10171033

More Conditions Fewer Conditions

Pressure 30.27 in
Visibility 5.0 miles
Clouds Overcast 3300 ft
Windchill 29 °F
Dew Point 24 °F
Humidity 83%
Rainfall 0.00 in
Snow Depth Not available.
UV 0.0 out of 12
Pollen .10 out of 12
Air Quality Not available.
Flu Activity Not available.
SPECI KORE 210906Z AUTO 01004KT 5SM BR OVC033 M02/M03 A3027 RMK AO2 SNE02 P0000 T10171033

More Conditions Fewer Conditions

10-Day Weather Forecast

Almanac

Astronomy

Dec. 21, 2014 Rise Set
Actual Time
Civil Twilight
Nautical Twilight
Astronomical Twilight
Moon
Length of Visible Light
Length of Day
Tomorrow will be .
, % of the Moon is Illuminated

Today's Extremes

State Highs State Lows

Community

WunderPhotos

Upload Photos

1,779,364 photos uploaded!

WunderBlogs® & News

Nearby

Air Quality

  Air Quality AQ Index Pollutant
Not available.

Snow Depth

Station Depth Elevation

Earthquake Activity

City Distance Mag. Time & Date
Minimum magnitude displayed is 2.5.

Coastal Water Temperatures

Place Temperature

Nearby Weather Stations